sensor_id;sensor_type;location;lat;lon;timestamp;P1;durP1;ratioP1;P2;durP2;ratioP2
4921;SDS011;16625;53.624;10.106;2022-11-15T00:00:35;64.97;;;26.47;;
4921;SDS011;16625;53.624;10.106;2022-11-15T00:03:04;52.13;;;24.70;;
4921;SDS011;16625;53.624;10.106;2022-11-15T00:05:34;57.10;;;25.13;;
4921;SDS011;16625;53.624;10.106;2022-11-15T00:08:02;55.43;;;23.63;;
4921;SDS011;16625;53.624;10.106;2022-11-15T00:10:30;59.43;;;24.37;;
4921;SDS011;16625;53.624;10.106;2022-11-15T00:12:56;57.47;;;25.00;;
4921;SDS011;16625;53.624;10.106;2022-11-15T00:15:23;56.27;;;27.10;;
4921;SDS011;16625;53.624;10.106;2022-11-15T00:17:50;51.37;;;23.00;;
4921;SDS011;16625;53.624;10.106;2022-11-15T00:20:17;52.33;;;27.50;;
4921;SDS011;16625;53.624;10.106;2022-11-15T00:22:50;51.63;;;23.70;;
4921;SDS011;16625;53.624;10.106;2022-11-15T00:25:16;47.30;;;22.33;;
4921;SDS011;16625;53.624;10.106;2022-11-15T00:27:45;58.57;;;23.60;;
4921;SDS011;16625;53.624;10.106;2022-11-15T00:30:12;48.37;;;24.67;;
4921;SDS011;16625;53.624;10.106;2022-11-15T00:32:49;47.90;;;23.23;;
4921;SDS011;16625;53.624;10.106;2022-11-15T00:35:16;49.10;;;24.43;;
4921;SDS011;16625;53.624;10.106;2022-11-15T00:37:43;52.50;;;24.50;;
4921;SDS011;16625;53.624;10.106;2022-11-15T00:40:10;56.57;;;25.90;;
4921;SDS011;16625;53.624;10.106;2022-11-15T00:42:45;49.87;;;22.30;;
4921;SDS011;16625;53.624;10.106;2022-11-15T00:45:15;54.13;;;22.63;;
4921;SDS011;16625;53.624;10.106;2022-11-15T00:47:43;50.70;;;25.67;;
4921;SDS011;16625;53.624;10.106;2022-11-15T00:50:10;50.53;;;23.17;;
4921;SDS011;16625;53.624;10.106;2022-11-15T00:52:37;49.70;;;24.03;;
4921;SDS011;16625;53.624;10.106;2022-11-15T00:55:05;53.27;;;25.80;;
4921;SDS011;16625;53.624;10.106;2022-11-15T00:57:32;50.57;;;24.73;;
4921;SDS011;16625;53.624;10.106;2022-11-15T01:00:00;50.37;;;23.77;;
4921;SDS011;16625;53.624;10.106;2022-11-15T01:02:27;60.50;;;23.40;;
4921;SDS011;16625;53.624;10.106;2022-11-15T01:04:54;46.33;;;24.30;;
4921;SDS011;16625;53.624;10.106;2022-11-15T01:07:20;42.63;;;23.23;;
4921;SDS011;16625;53.624;10.106;2022-11-15T01:09:47;52.13;;;25.30;;
4921;SDS011;16625;53.624;10.106;2022-11-15T01:12:14;45.90;;;23.53;;
4921;SDS011;16625;53.624;10.106;2022-11-15T01:14:41;47.43;;;22.50;;
4921;SDS011;16625;53.624;10.106;2022-11-15T01:17:09;50.30;;;24.27;;
4921;SDS011;16625;53.624;10.106;2022-11-15T01:19:36;48.90;;;23.57;;
4921;SDS011;16625;53.624;10.106;2022-11-15T01:22:03;56.40;;;23.40;;
4921;SDS011;16625;53.624;10.106;2022-11-15T01:24:30;52.47;;;24.00;;
4921;SDS011;16625;53.624;10.106;2022-11-15T01:26:57;49.43;;;21.57;;
4921;SDS011;16625;53.624;10.106;2022-11-15T01:29:24;44.10;;;22.37;;
4921;SDS011;16625;53.624;10.106;2022-11-15T01:34:56;49.30;;;24.63;;
4921;SDS011;16625;53.624;10.106;2022-11-15T01:37:23;47.23;;;21.77;;
4921;SDS011;16625;53.624;10.106;2022-11-15T01:39:50;40.23;;;22.43;;
4921;SDS011;16625;53.624;10.106;2022-11-15T01:42:17;44.20;;;20.90;;
4921;SDS011;16625;53.624;10.106;2022-11-15T01:44:45;45.90;;;22.60;;
4921;SDS011;16625;53.624;10.106;2022-11-15T01:47:15;40.20;;;19.27;;
4921;SDS011;16625;53.624;10.106;2022-11-15T01:49:48;50.77;;;21.03;;
4921;SDS011;16625;53.624;10.106;2022-11-15T01:52:19;42.17;;;21.77;;
4921;SDS011;16625;53.624;10.106;2022-11-15T01:54:48;39.73;;;21.70;;
4921;SDS011;16625;53.624;10.106;2022-11-15T01:57:19;45.87;;;23.13;;
4921;SDS011;16625;53.624;10.106;2022-11-15T01:59:46;40.60;;;19.77;;
4921;SDS011;16625;53.624;10.106;2022-11-15T02:02:14;52.83;;;23.83;;
4921;SDS011;16625;53.624;10.106;2022-11-15T02:04:42;44.43;;;19.00;;
4921;SDS011;16625;53.624;10.106;2022-11-15T02:07:12;41.70;;;20.00;;
4921;SDS011;16625;53.624;10.106;2022-11-15T02:09:42;46.80;;;19.60;;
4921;SDS011;16625;53.624;10.106;2022-11-15T02:12:09;39.40;;;19.60;;
4921;SDS011;16625;53.624;10.106;2022-11-15T02:14:39;36.03;;;18.63;;
4921;SDS011;16625;53.624;10.106;2022-11-15T02:17:11;40.33;;;20.27;;
4921;SDS011;16625;53.624;10.106;2022-11-15T02:20:30;44.77;;;18.67;;
4921;SDS011;16625;53.624;10.106;2022-11-15T02:23:16;39.40;;;20.13;;
4921;SDS011;16625;53.624;10.106;2022-11-15T02:26:04;48.20;;;19.40;;
4921;SDS011;16625;53.624;10.106;2022-11-15T02:28:48;49.77;;;21.80;;
4921;SDS011;16625;53.624;10.106;2022-11-15T02:31:24;42.80;;;21.40;;
4921;SDS011;16625;53.624;10.106;2022-11-15T02:33:59;41.03;;;21.40;;
4921;SDS011;16625;53.624;10.106;2022-11-15T02:36:34;34.20;;;19.00;;
4921;SDS011;16625;53.624;10.106;2022-11-15T02:39:07;48.07;;;21.37;;
4921;SDS011;16625;53.624;10.106;2022-11-15T02:41:39;43.53;;;20.20;;
4921;SDS011;16625;53.624;10.106;2022-11-15T02:44:13;48.13;;;19.40;;
4921;SDS011;16625;53.624;10.106;2022-11-15T02:46:48;39.93;;;20.20;;
4921;SDS011;16625;53.624;10.106;2022-11-15T02:49:36;36.93;;;20.47;;
4921;SDS011;16625;53.624;10.106;2022-11-15T02:52:14;39.60;;;19.70;;
4921;SDS011;16625;53.624;10.106;2022-11-15T02:54:57;46.20;;;20.20;;
4921;SDS011;16625;53.624;10.106;2022-11-15T02:57:29;41.13;;;20.23;;
4921;SDS011;16625;53.624;10.106;2022-11-15T03:00:04;41.37;;;20.00;;
4921;SDS011;16625;53.624;10.106;2022-11-15T03:02:46;41.50;;;20.77;;
4921;SDS011;16625;53.624;10.106;2022-11-15T03:05:30;36.43;;;19.13;;
4921;SDS011;16625;53.624;10.106;2022-11-15T03:08:04;38.60;;;20.70;;
4921;SDS011;16625;53.624;10.106;2022-11-15T03:10:36;37.10;;;18.67;;
4921;SDS011;16625;53.624;10.106;2022-11-15T03:13:14;34.73;;;16.97;;
4921;SDS011;16625;53.624;10.106;2022-11-15T03:15:49;39.53;;;17.27;;
4921;SDS011;16625;53.624;10.106;2022-11-15T03:18:41;39.57;;;19.73;;
4921;SDS011;16625;53.624;10.106;2022-11-15T03:24:06;31.37;;;17.97;;
4921;SDS011;16625;53.624;10.106;2022-11-15T03:26:34;37.00;;;18.43;;
4921;SDS011;16625;53.624;10.106;2022-11-15T03:29:08;40.00;;;18.87;;
4921;SDS011;16625;53.624;10.106;2022-11-15T03:31:40;39.60;;;19.47;;
4921;SDS011;16625;53.624;10.106;2022-11-15T03:34:22;41.83;;;19.40;;
4921;SDS011;16625;53.624;10.106;2022-11-15T03:36:53;41.10;;;17.93;;
4921;SDS011;16625;53.624;10.106;2022-11-15T03:39:26;39.57;;;19.03;;
4921;SDS011;16625;53.624;10.106;2022-11-15T03:42:04;35.83;;;19.50;;
4921;SDS011;16625;53.624;10.106;2022-11-15T03:44:51;38.70;;;18.13;;
4921;SDS011;16625;53.624;10.106;2022-11-15T03:47:25;37.40;;;18.73;;
4921;SDS011;16625;53.624;10.106;2022-11-15T03:49:57;37.57;;;18.83;;
4921;SDS011;16625;53.624;10.106;2022-11-15T03:52:29;37.93;;;20.27;;
4921;SDS011;16625;53.624;10.106;2022-11-15T03:54:59;36.00;;;19.17;;
4921;SDS011;16625;53.624;10.106;2022-11-15T03:57:28;38.90;;;19.03;;
4921;SDS011;16625;53.624;10.106;2022-11-15T03:59:55;33.90;;;18.30;;
4921;SDS011;16625;53.624;10.106;2022-11-15T04:02:22;33.67;;;17.70;;
4921;SDS011;16625;53.624;10.106;2022-11-15T04:04:49;34.23;;;19.00;;
4921;SDS011;16625;53.624;10.106;2022-11-15T04:07:17;45.90;;;20.57;;
4921;SDS011;16625;53.624;10.106;2022-11-15T04:09:44;31.43;;;17.67;;
4921;SDS011;16625;53.624;10.106;2022-11-15T04:12:29;36.03;;;18.20;;
4921;SDS011;16625;53.624;10.106;2022-11-15T04:14:59;36.53;;;18.30;;
4921;SDS011;16625;53.624;10.106;2022-11-15T04:17:35;40.20;;;18.87;;
4921;SDS011;16625;53.624;10.106;2022-11-15T04:20:04;33.57;;;17.30;;
4921;SDS011;16625;53.624;10.106;2022-11-15T04:22:53;30.43;;;16.70;;
4921;SDS011;16625;53.624;10.106;2022-11-15T04:25:37;29.80;;;16.57;;
4921;SDS011;16625;53.624;10.106;2022-11-15T04:28:05;31.53;;;17.40;;
4921;SDS011;16625;53.624;10.106;2022-11-15T04:30:31;35.53;;;17.50;;
4921;SDS011;16625;53.624;10.106;2022-11-15T04:33:08;32.87;;;17.07;;
4921;SDS011;16625;53.624;10.106;2022-11-15T04:35:35;29.73;;;15.93;;
4921;SDS011;16625;53.624;10.106;2022-11-15T04:38:04;33.33;;;17.37;;
4921;SDS011;16625;53.624;10.106;2022-11-15T04:40:35;28.37;;;16.20;;
4921;SDS011;16625;53.624;10.106;2022-11-15T04:43:02;38.97;;;18.07;;
4921;SDS011;16625;53.624;10.106;2022-11-15T04:45:29;44.43;;;18.27;;
4921;SDS011;16625;53.624;10.106;2022-11-15T04:47:56;32.70;;;16.93;;
4921;SDS011;16625;53.624;10.106;2022-11-15T04:50:29;34.83;;;17.30;;
4921;SDS011;16625;53.624;10.106;2022-11-15T04:52:56;39.10;;;18.10;;
4921;SDS011;16625;53.624;10.106;2022-11-15T04:55:24;33.50;;;16.30;;
4921;SDS011;16625;53.624;10.106;2022-11-15T04:57:57;34.40;;;16.47;;
4921;SDS011;16625;53.624;10.106;2022-11-15T05:00:28;43.90;;;17.37;;
4921;SDS011;16625;53.624;10.106;2022-11-15T05:02:55;30.20;;;16.47;;
4921;SDS011;16625;53.624;10.106;2022-11-15T05:05:39;30.67;;;16.40;;
4921;SDS011;16625;53.624;10.106;2022-11-15T05:08:06;31.23;;;17.60;;
4921;SDS011;16625;53.624;10.106;2022-11-15T05:10:35;32.50;;;17.23;;
4921;SDS011;16625;53.624;10.106;2022-11-15T05:13:01;29.67;;;17.77;;
4921;SDS011;16625;53.624;10.106;2022-11-15T05:15:28;31.20;;;15.90;;
4921;SDS011;16625;53.624;10.106;2022-11-15T05:17:57;31.03;;;16.50;;
4921;SDS011;16625;53.624;10.106;2022-11-15T05:20:29;32.47;;;17.60;;
4921;SDS011;16625;53.624;10.106;2022-11-15T05:23:00;35.07;;;17.70;;
4921;SDS011;16625;53.624;10.106;2022-11-15T05:25:35;31.33;;;17.67;;
4921;SDS011;16625;53.624;10.106;2022-11-15T05:28:04;40.93;;;17.50;;
4921;SDS011;16625;53.624;10.106;2022-11-15T05:30:31;30.60;;;16.67;;
4921;SDS011;16625;53.624;10.106;2022-11-15T05:32:58;48.30;;;19.57;;
4921;SDS011;16625;53.624;10.106;2022-11-15T05:35:34;33.03;;;18.03;;
4921;SDS011;16625;53.624;10.106;2022-11-15T05:38:14;42.90;;;19.40;;
4921;SDS011;16625;53.624;10.106;2022-11-15T05:40:42;34.60;;;18.60;;
4921;SDS011;16625;53.624;10.106;2022-11-15T05:43:09;33.57;;;19.37;;
4921;SDS011;16625;53.624;10.106;2022-11-15T05:45:36;43.67;;;20.57;;
4921;SDS011;16625;53.624;10.106;2022-11-15T05:48:04;38.03;;;21.13;;
4921;SDS011;16625;53.624;10.106;2022-11-15T05:50:33;38.13;;;19.47;;
4921;SDS011;16625;53.624;10.106;2022-11-15T05:53:07;36.53;;;19.80;;
4921;SDS011;16625;53.624;10.106;2022-11-15T05:55:36;39.10;;;19.97;;
4921;SDS011;16625;53.624;10.106;2022-11-15T05:58:05;41.97;;;19.40;;
4921;SDS011;16625;53.624;10.106;2022-11-15T06:00:33;43.00;;;19.00;;
4921;SDS011;16625;53.624;10.106;2022-11-15T06:03:02;39.40;;;19.20;;
4921;SDS011;16625;53.624;10.106;2022-11-15T06:05:31;45.53;;;20.30;;
4921;SDS011;16625;53.624;10.106;2022-11-15T06:08:00;41.63;;;20.30;;
4921;SDS011;16625;53.624;10.106;2022-11-15T06:10:30;48.33;;;21.50;;
4921;SDS011;16625;53.624;10.106;2022-11-15T06:13:00;40.53;;;19.50;;
4921;SDS011;16625;53.624;10.106;2022-11-15T06:15:35;43.27;;;20.63;;
4921;SDS011;16625;53.624;10.106;2022-11-15T06:18:01;42.70;;;20.20;;
4921;SDS011;16625;53.624;10.106;2022-11-15T06:20:29;55.80;;;20.97;;
4921;SDS011;16625;53.624;10.106;2022-11-15T06:22:58;43.53;;;19.80;;
4921;SDS011;16625;53.624;10.106;2022-11-15T06:25:26;39.50;;;19.90;;
4921;SDS011;16625;53.624;10.106;2022-11-15T06:28:05;43.07;;;23.67;;
4921;SDS011;16625;53.624;10.106;2022-11-15T06:30:37;42.60;;;19.70;;
4921;SDS011;16625;53.624;10.106;2022-11-15T06:33:04;46.00;;;22.80;;
4921;SDS011;16625;53.624;10.106;2022-11-15T06:35:36;39.77;;;21.80;;
4921;SDS011;16625;53.624;10.106;2022-11-15T06:38:07;35.77;;;19.77;;
4921;SDS011;16625;53.624;10.106;2022-11-15T06:40:35;41.40;;;20.70;;
4921;SDS011;16625;53.624;10.106;2022-11-15T06:43:06;42.50;;;21.13;;
4921;SDS011;16625;53.624;10.106;2022-11-15T06:45:35;38.90;;;19.00;;
4921;SDS011;16625;53.624;10.106;2022-11-15T06:48:07;42.07;;;20.97;;
4921;SDS011;16625;53.624;10.106;2022-11-15T06:50:34;49.20;;;21.43;;
4921;SDS011;16625;53.624;10.106;2022-11-15T06:53:02;43.07;;;20.40;;
4921;SDS011;16625;53.624;10.106;2022-11-15T06:55:29;41.03;;;21.17;;
4921;SDS011;16625;53.624;10.106;2022-11-15T06:57:57;36.73;;;18.37;;
4921;SDS011;16625;53.624;10.106;2022-11-15T07:00:24;45.10;;;21.83;;
4921;SDS011;16625;53.624;10.106;2022-11-15T07:02:50;40.93;;;20.93;;
4921;SDS011;16625;53.624;10.106;2022-11-15T07:05:21;42.10;;;21.23;;
4921;SDS011;16625;53.624;10.106;2022-11-15T07:07:52;42.10;;;21.13;;
4921;SDS011;16625;53.624;10.106;2022-11-15T07:10:20;36.30;;;20.00;;
4921;SDS011;16625;53.624;10.106;2022-11-15T07:12:49;38.47;;;20.03;;
4921;SDS011;16625;53.624;10.106;2022-11-15T07:15:17;42.30;;;21.50;;
4921;SDS011;16625;53.624;10.106;2022-11-15T07:17:52;45.63;;;21.70;;
4921;SDS011;16625;53.624;10.106;2022-11-15T07:20:19;50.27;;;21.97;;
4921;SDS011;16625;53.624;10.106;2022-11-15T07:22:48;41.07;;;21.57;;
4921;SDS011;16625;53.624;10.106;2022-11-15T07:25:18;48.83;;;19.23;;
4921;SDS011;16625;53.624;10.106;2022-11-15T07:27:46;51.33;;;21.60;;
4921;SDS011;16625;53.624;10.106;2022-11-15T07:30:20;46.00;;;22.77;;
4921;SDS011;16625;53.624;10.106;2022-11-15T07:32:47;45.77;;;22.43;;
4921;SDS011;16625;53.624;10.106;2022-11-15T07:35:18;43.17;;;21.30;;
4921;SDS011;16625;53.624;10.106;2022-11-15T07:37:53;39.47;;;19.60;;
4921;SDS011;16625;53.624;10.106;2022-11-15T07:40:21;39.87;;;21.77;;
4921;SDS011;16625;53.624;10.106;2022-11-15T07:42:49;47.70;;;21.00;;
4921;SDS011;16625;53.624;10.106;2022-11-15T07:45:22;59.07;;;21.97;;
4921;SDS011;16625;53.624;10.106;2022-11-15T07:47:50;41.90;;;22.30;;
4921;SDS011;16625;53.624;10.106;2022-11-15T07:50:18;40.80;;;21.37;;
4921;SDS011;16625;53.624;10.106;2022-11-15T07:52:45;45.20;;;22.70;;
4921;SDS011;16625;53.624;10.106;2022-11-15T07:55:15;41.10;;;19.97;;
4921;SDS011;16625;53.624;10.106;2022-11-15T07:57:42;50.43;;;20.50;;
4921;SDS011;16625;53.624;10.106;2022-11-15T08:00:10;46.43;;;21.47;;
4921;SDS011;16625;53.624;10.106;2022-11-15T08:02:40;47.07;;;20.67;;
4921;SDS011;16625;53.624;10.106;2022-11-15T08:05:08;36.27;;;18.67;;
4921;SDS011;16625;53.624;10.106;2022-11-15T08:07:39;38.23;;;19.23;;
4921;SDS011;16625;53.624;10.106;2022-11-15T08:10:08;40.20;;;21.77;;
4921;SDS011;16625;53.624;10.106;2022-11-15T08:12:40;51.40;;;21.07;;
4921;SDS011;16625;53.624;10.106;2022-11-15T08:15:10;43.37;;;21.70;;
4921;SDS011;16625;53.624;10.106;2022-11-15T08:17:45;39.53;;;20.60;;
4921;SDS011;16625;53.624;10.106;2022-11-15T08:20:17;36.17;;;20.30;;
4921;SDS011;16625;53.624;10.106;2022-11-15T08:22:44;50.60;;;20.00;;
4921;SDS011;16625;53.624;10.106;2022-11-15T08:25:11;37.50;;;20.00;;
4921;SDS011;16625;53.624;10.106;2022-11-15T08:27:40;42.33;;;20.67;;
4921;SDS011;16625;53.624;10.106;2022-11-15T08:30:07;44.53;;;23.53;;
4921;SDS011;16625;53.624;10.106;2022-11-15T08:32:37;41.80;;;21.53;;
4921;SDS011;16625;53.624;10.106;2022-11-15T08:35:04;41.97;;;20.43;;
4921;SDS011;16625;53.624;10.106;2022-11-15T08:37:32;30.80;;;17.17;;
4921;SDS011;16625;53.624;10.106;2022-11-15T08:40:00;34.27;;;19.43;;
4921;SDS011;16625;53.624;10.106;2022-11-15T08:42:28;38.53;;;18.77;;
4921;SDS011;16625;53.624;10.106;2022-11-15T08:44:57;40.23;;;20.00;;
4921;SDS011;16625;53.624;10.106;2022-11-15T08:47:25;42.57;;;20.40;;
4921;SDS011;16625;53.624;10.106;2022-11-15T08:49:53;39.37;;;20.83;;
4921;SDS011;16625;53.624;10.106;2022-11-15T08:52:21;33.83;;;19.57;;
4921;SDS011;16625;53.624;10.106;2022-11-15T08:54:48;41.07;;;19.70;;
4921;SDS011;16625;53.624;10.106;2022-11-15T08:57:24;37.10;;;17.77;;
4921;SDS011;16625;53.624;10.106;2022-11-15T08:59:54;36.50;;;19.33;;
4921;SDS011;16625;53.624;10.106;2022-11-15T09:02:23;38.90;;;20.83;;
4921;SDS011;16625;53.624;10.106;2022-11-15T09:04:51;39.70;;;20.80;;
4921;SDS011;16625;53.624;10.106;2022-11-15T09:07:18;37.13;;;19.17;;
4921;SDS011;16625;53.624;10.106;2022-11-15T09:09:58;34.73;;;19.83;;
4921;SDS011;16625;53.624;10.106;2022-11-15T09:12:25;36.50;;;19.40;;
4921;SDS011;16625;53.624;10.106;2022-11-15T09:14:53;35.13;;;20.07;;
4921;SDS011;16625;53.624;10.106;2022-11-15T09:17:20;34.30;;;17.93;;
4921;SDS011;16625;53.624;10.106;2022-11-15T09:19:59;36.83;;;19.10;;
4921;SDS011;16625;53.624;10.106;2022-11-15T09:22:27;27.60;;;17.50;;
4921;SDS011;16625;53.624;10.106;2022-11-15T09:24:57;32.30;;;18.07;;
4921;SDS011;16625;53.624;10.106;2022-11-15T09:27:27;31.70;;;21.13;;
4921;SDS011;16625;53.624;10.106;2022-11-15T09:29:55;37.10;;;19.40;;
4921;SDS011;16625;53.624;10.106;2022-11-15T09:32:27;29.70;;;18.50;;
4921;SDS011;16625;53.624;10.106;2022-11-15T09:34:55;43.33;;;21.17;;
4921;SDS011;16625;53.624;10.106;2022-11-15T09:37:25;29.80;;;17.40;;
4921;SDS011;16625;53.624;10.106;2022-11-15T09:39:55;32.47;;;18.47;;
4921;SDS011;16625;53.624;10.106;2022-11-15T09:42:25;32.80;;;18.27;;
4921;SDS011;16625;53.624;10.106;2022-11-15T09:45:09;31.73;;;19.77;;
4921;SDS011;16625;53.624;10.106;2022-11-15T09:48:03;37.07;;;19.27;;
4921;SDS011;16625;53.624;10.106;2022-11-15T09:50:44;31.07;;;17.77;;
4921;SDS011;16625;53.624;10.106;2022-11-15T09:53:17;31.70;;;18.50;;
4921;SDS011;16625;53.624;10.106;2022-11-15T09:55:56;33.13;;;16.67;;
4921;SDS011;16625;53.624;10.106;2022-11-15T09:58:32;31.53;;;17.10;;
4921;SDS011;16625;53.624;10.106;2022-11-15T10:01:08;27.87;;;17.20;;
4921;SDS011;16625;53.624;10.106;2022-11-15T10:03:43;27.70;;;15.93;;
4921;SDS011;16625;53.624;10.106;2022-11-15T10:06:14;26.20;;;15.73;;
4921;SDS011;16625;53.624;10.106;2022-11-15T10:08:50;26.83;;;15.17;;
4921;SDS011;16625;53.624;10.106;2022-11-15T10:11:22;29.30;;;16.50;;
4921;SDS011;16625;53.624;10.106;2022-11-15T10:13:52;25.13;;;14.57;;
4921;SDS011;16625;53.624;10.106;2022-11-15T10:16:29;35.17;;;16.57;;
4921;SDS011;16625;53.624;10.106;2022-11-15T10:19:14;28.70;;;16.10;;
4921;SDS011;16625;53.624;10.106;2022-11-15T10:21:48;22.93;;;13.83;;
4921;SDS011;16625;53.624;10.106;2022-11-15T10:24:28;20.67;;;13.03;;
4921;SDS011;16625;53.624;10.106;2022-11-15T10:27:00;22.27;;;13.90;;
4921;SDS011;16625;53.624;10.106;2022-11-15T10:29:27;23.83;;;14.20;;
4921;SDS011;16625;53.624;10.106;2022-11-15T10:31:57;26.00;;;13.90;;
4921;SDS011;16625;53.624;10.106;2022-11-15T10:34:28;21.47;;;13.73;;
4921;SDS011;16625;53.624;10.106;2022-11-15T10:36:55;26.67;;;14.87;;
4921;SDS011;16625;53.624;10.106;2022-11-15T10:39:30;21.43;;;13.90;;
4921;SDS011;16625;53.624;10.106;2022-11-15T10:42:14;20.37;;;11.73;;
4921;SDS011;16625;53.624;10.106;2022-11-15T10:44:42;22.73;;;12.93;;
4921;SDS011;16625;53.624;10.106;2022-11-15T10:50:03;17.50;;;10.80;;
4921;SDS011;16625;53.624;10.106;2022-11-15T10:52:35;21.70;;;12.90;;
4921;SDS011;16625;53.624;10.106;2022-11-15T10:55:23;18.43;;;11.43;;
4921;SDS011;16625;53.624;10.106;2022-11-15T10:57:53;17.80;;;10.43;;
4921;SDS011;16625;53.624;10.106;2022-11-15T11:00:26;17.30;;;12.20;;
4921;SDS011;16625;53.624;10.106;2022-11-15T11:03:02;25.00;;;11.60;;
4921;SDS011;16625;53.624;10.106;2022-11-15T11:05:37;18.60;;;11.83;;
4921;SDS011;16625;53.624;10.106;2022-11-15T11:08:19;20.13;;;11.63;;
4921;SDS011;16625;53.624;10.106;2022-11-15T11:10:52;17.40;;;11.27;;
4921;SDS011;16625;53.624;10.106;2022-11-15T11:13:22;19.37;;;12.30;;
4921;SDS011;16625;53.624;10.106;2022-11-15T11:15:56;20.87;;;12.00;;
4921;SDS011;16625;53.624;10.106;2022-11-15T11:18:32;20.20;;;12.03;;
4921;SDS011;16625;53.624;10.106;2022-11-15T11:21:14;16.10;;;11.50;;
4921;SDS011;16625;53.624;10.106;2022-11-15T11:23:45;19.37;;;11.33;;
4921;SDS011;16625;53.624;10.106;2022-11-15T11:26:31;20.40;;;11.47;;
4921;SDS011;16625;53.624;10.106;2022-11-15T11:29:21;24.03;;;12.40;;
4921;SDS011;16625;53.624;10.106;2022-11-15T11:32:02;22.00;;;11.00;;
4921;SDS011;16625;53.624;10.106;2022-11-15T11:34:40;19.00;;;11.10;;
4921;SDS011;16625;53.624;10.106;2022-11-15T11:37:28;23.10;;;12.20;;
4921;SDS011;16625;53.624;10.106;2022-11-15T11:40:05;20.40;;;10.90;;
4921;SDS011;16625;53.624;10.106;2022-11-15T11:43:10;15.50;;;10.60;;
4921;SDS011;16625;53.624;10.106;2022-11-15T11:45:53;25.80;;;10.77;;
4921;SDS011;16625;53.624;10.106;2022-11-15T11:48:42;16.37;;;11.00;;
4921;SDS011;16625;53.624;10.106;2022-11-15T11:51:12;16.20;;;10.33;;
4921;SDS011;16625;53.624;10.106;2022-11-15T11:53:50;18.20;;;11.40;;
4921;SDS011;16625;53.624;10.106;2022-11-15T11:56:24;17.03;;;9.50;;
4921;SDS011;16625;53.624;10.106;2022-11-15T11:58:54;15.57;;;10.50;;
4921;SDS011;16625;53.624;10.106;2022-11-15T12:01:26;16.17;;;10.77;;
4921;SDS011;16625;53.624;10.106;2022-11-15T12:03:59;18.67;;;10.10;;
4921;SDS011;16625;53.624;10.106;2022-11-15T12:06:31;16.23;;;10.07;;
4921;SDS011;16625;53.624;10.106;2022-11-15T12:09:12;15.33;;;10.10;;
4921;SDS011;16625;53.624;10.106;2022-11-15T12:11:52;19.10;;;10.90;;
4921;SDS011;16625;53.624;10.106;2022-11-15T12:14:31;17.90;;;10.03;;
4921;SDS011;16625;53.624;10.106;2022-11-15T12:17:01;18.77;;;10.00;;
4921;SDS011;16625;53.624;10.106;2022-11-15T12:19:29;17.80;;;10.33;;
4921;SDS011;16625;53.624;10.106;2022-11-15T12:21:59;20.70;;;11.07;;
4921;SDS011;16625;53.624;10.106;2022-11-15T12:24:33;22.13;;;11.83;;
4921;SDS011;16625;53.624;10.106;2022-11-15T12:27:08;15.03;;;9.60;;
4921;SDS011;16625;53.624;10.106;2022-11-15T12:29:45;16.60;;;11.17;;
4921;SDS011;16625;53.624;10.106;2022-11-15T12:32:30;16.73;;;10.20;;
4921;SDS011;16625;53.624;10.106;2022-11-15T12:35:01;18.80;;;10.00;;
4921;SDS011;16625;53.624;10.106;2022-11-15T12:37:34;15.70;;;9.20;;
4921;SDS011;16625;53.624;10.106;2022-11-15T12:40:35;18.23;;;10.33;;
4921;SDS011;16625;53.624;10.106;2022-11-15T12:46:10;15.93;;;7.97;;
4921;SDS011;16625;53.624;10.106;2022-11-15T12:54:57;18.43;;;10.60;;
4921;SDS011;16625;53.624;10.106;2022-11-15T12:57:32;23.80;;;10.83;;
4921;SDS011;16625;53.624;10.106;2022-11-15T13:00:15;16.73;;;10.30;;
4921;SDS011;16625;53.624;10.106;2022-11-15T13:06:04;13.63;;;8.87;;
4921;SDS011;16625;53.624;10.106;2022-11-15T13:17:26;15.17;;;9.67;;
4921;SDS011;16625;53.624;10.106;2022-11-15T13:20:08;14.37;;;9.33;;
4921;SDS011;16625;53.624;10.106;2022-11-15T13:22:49;16.23;;;9.60;;
4921;SDS011;16625;53.624;10.106;2022-11-15T13:25:19;13.90;;;8.50;;
4921;SDS011;16625;53.624;10.106;2022-11-15T13:28:10;14.70;;;9.53;;
4921;SDS011;16625;53.624;10.106;2022-11-15T13:30:54;14.97;;;9.80;;
4921;SDS011;16625;53.624;10.106;2022-11-15T13:33:27;13.70;;;9.20;;
4921;SDS011;16625;53.624;10.106;2022-11-15T13:35:57;17.13;;;9.80;;
4921;SDS011;16625;53.624;10.106;2022-11-15T13:38:28;12.30;;;8.87;;
4921;SDS011;16625;53.624;10.106;2022-11-15T13:40:59;14.83;;;10.60;;
4921;SDS011;16625;53.624;10.106;2022-11-15T13:43:36;13.30;;;8.60;;
4921;SDS011;16625;53.624;10.106;2022-11-15T13:46:06;16.13;;;9.40;;
4921;SDS011;16625;53.624;10.106;2022-11-15T13:48:38;19.90;;;10.17;;
4921;SDS011;16625;53.624;10.106;2022-11-15T13:51:09;24.70;;;8.87;;
4921;SDS011;16625;53.624;10.106;2022-11-15T13:53:41;14.17;;;9.47;;
4921;SDS011;16625;53.624;10.106;2022-11-15T13:56:11;15.63;;;8.77;;
4921;SDS011;16625;53.624;10.106;2022-11-15T13:58:38;16.67;;;9.20;;
4921;SDS011;16625;53.624;10.106;2022-11-15T14:01:06;17.83;;;9.90;;
4921;SDS011;16625;53.624;10.106;2022-11-15T14:03:42;13.03;;;9.17;;
4921;SDS011;16625;53.624;10.106;2022-11-15T14:06:16;13.17;;;9.20;;
4921;SDS011;16625;53.624;10.106;2022-11-15T14:08:57;14.23;;;8.77;;
4921;SDS011;16625;53.624;10.106;2022-11-15T14:11:29;16.97;;;9.33;;
4921;SDS011;16625;53.624;10.106;2022-11-15T14:16:43;13.77;;;8.00;;
4921;SDS011;16625;53.624;10.106;2022-11-15T14:19:13;13.93;;;9.17;;
4921;SDS011;16625;53.624;10.106;2022-11-15T14:22:07;15.87;;;9.43;;
4921;SDS011;16625;53.624;10.106;2022-11-15T14:24:43;15.50;;;9.10;;
4921;SDS011;16625;53.624;10.106;2022-11-15T14:27:18;15.83;;;9.23;;
4921;SDS011;16625;53.624;10.106;2022-11-15T14:29:47;12.23;;;8.63;;
4921;SDS011;16625;53.624;10.106;2022-11-15T14:32:20;12.33;;;8.83;;
4921;SDS011;16625;53.624;10.106;2022-11-15T14:34:53;17.43;;;10.00;;
4921;SDS011;16625;53.624;10.106;2022-11-15T14:37:22;14.17;;;8.47;;
4921;SDS011;16625;53.624;10.106;2022-11-15T14:39:50;15.80;;;9.80;;
4921;SDS011;16625;53.624;10.106;2022-11-15T14:42:18;13.10;;;8.80;;
4921;SDS011;16625;53.624;10.106;2022-11-15T14:44:45;19.17;;;9.80;;
4921;SDS011;16625;53.624;10.106;2022-11-15T14:47:12;14.87;;;9.90;;
4921;SDS011;16625;53.624;10.106;2022-11-15T14:49:41;15.87;;;8.13;;
4921;SDS011;16625;53.624;10.106;2022-11-15T14:52:25;23.23;;;9.10;;
4921;SDS011;16625;53.624;10.106;2022-11-15T14:55:13;14.83;;;8.53;;
4921;SDS011;16625;53.624;10.106;2022-11-15T14:57:44;14.90;;;9.37;;
4921;SDS011;16625;53.624;10.106;2022-11-15T15:00:12;16.83;;;9.10;;
4921;SDS011;16625;53.624;10.106;2022-11-15T15:02:39;22.13;;;11.27;;
4921;SDS011;16625;53.624;10.106;2022-11-15T15:05:12;18.40;;;10.30;;
4921;SDS011;16625;53.624;10.106;2022-11-15T15:07:42;20.07;;;10.47;;
4921;SDS011;16625;53.624;10.106;2022-11-15T15:10:09;13.20;;;9.17;;
4921;SDS011;16625;53.624;10.106;2022-11-15T15:12:36;16.70;;;9.33;;
4921;SDS011;16625;53.624;10.106;2022-11-15T15:15:04;15.07;;;10.00;;
4921;SDS011;16625;53.624;10.106;2022-11-15T15:17:32;16.50;;;9.73;;
4921;SDS011;16625;53.624;10.106;2022-11-15T15:20:06;13.87;;;8.43;;
4921;SDS011;16625;53.624;10.106;2022-11-15T15:22:34;14.80;;;8.93;;
4921;SDS011;16625;53.624;10.106;2022-11-15T15:25:09;17.13;;;10.10;;